createdAt,value
2022-11-20T00:00:55.324Z,3.20
2022-11-20T00:03:23.150Z,2.38
2022-11-20T00:05:50.926Z,3.10
2022-11-20T00:08:18.638Z,2.72
2022-11-20T00:10:47.625Z,3.67
2022-11-20T00:13:15.952Z,2.67
2022-11-20T00:15:45.188Z,4.53
2022-11-20T00:18:12.953Z,3.30
2022-11-20T00:20:40.678Z,8.10
2022-11-20T00:23:08.802Z,3.20
2022-11-20T00:25:36.683Z,2.75
2022-11-20T00:28:04.658Z,3.47
2022-11-20T00:30:32.444Z,2.95
2022-11-20T00:33:01.526Z,3.05
2022-11-20T00:35:29.267Z,2.70
2022-11-20T00:37:57.005Z,2.70
2022-11-20T00:40:24.748Z,3.38
2022-11-20T00:42:52.466Z,1.60
2022-11-20T00:45:20.300Z,2.63
2022-11-20T00:47:48.043Z,1.38
2022-11-20T00:50:17.198Z,1.45
2022-11-20T00:52:44.927Z,2.38
2022-11-20T00:55:12.653Z,2.17
2022-11-20T00:57:40.415Z,1.63
2022-11-20T01:00:09.360Z,2.08
2022-11-20T01:02:37.120Z,1.58
2022-11-20T01:05:05.345Z,1.30
2022-11-20T01:07:34.550Z,1.67
2022-11-20T01:10:02.478Z,1.40
2022-11-20T01:12:30.180Z,1.42
2022-11-20T01:14:57.918Z,3.60
2022-11-20T01:17:25.653Z,2.30
2022-11-20T01:19:53.425Z,1.58
2022-11-20T01:22:21.193Z,3.00
2022-11-20T01:24:50.304Z,1.88
2022-11-20T01:27:18.074Z,2.10
2022-11-20T01:29:45.790Z,1.80
2022-11-20T01:32:13.544Z,1.77
2022-11-20T01:34:41.298Z,2.20
2022-11-20T01:37:09.024Z,1.73
2022-11-20T01:39:36.759Z,1.52
2022-11-20T01:42:23.396Z,1.38
2022-11-20T01:44:55.265Z,1.63
2022-11-20T01:47:28.848Z,1.65
2022-11-20T01:50:01.466Z,1.45
2022-11-20T01:52:34.557Z,1.33
2022-11-20T01:55:07.768Z,1.48
2022-11-20T01:57:37.682Z,1.65
2022-11-20T02:00:09.071Z,1.95
2022-11-20T02:02:46.812Z,2.67
2022-11-20T02:05:21.365Z,2.70
2022-11-20T02:07:50.087Z,3.17
2022-11-20T02:10:18.059Z,4.07
2022-11-20T02:13:04.665Z,3.65
2022-11-20T02:15:34.149Z,3.75
2022-11-20T02:18:02.382Z,1.92
2022-11-20T02:20:30.195Z,1.48
2022-11-20T02:23:05.105Z,1.65
2022-11-20T02:25:35.787Z,2.55
2022-11-20T02:28:04.237Z,0.63
2022-11-20T02:30:31.978Z,1.52
2022-11-20T02:33:00.108Z,1.05
2022-11-20T02:35:45.638Z,0.60
2022-11-20T02:38:13.634Z,1.60
2022-11-20T02:40:43.147Z,1.00
2022-11-20T02:43:11.117Z,1.05
2022-11-20T02:45:39.391Z,1.08
2022-11-20T02:48:08.287Z,0.80
2022-11-20T02:50:38.832Z,0.63
2022-11-20T02:53:06.929Z,0.98
2022-11-20T02:55:34.930Z,0.70
2022-11-20T02:58:04.439Z,0.93
2022-11-20T03:00:32.920Z,1.20
2022-11-20T03:03:00.677Z,1.73
2022-11-20T03:05:28.424Z,2.58
2022-11-20T03:07:56.525Z,1.88
2022-11-20T03:10:24.269Z,3.08
2022-11-20T03:12:56.062Z,4.15
2022-11-20T03:15:26.028Z,3.03
2022-11-20T03:17:56.337Z,3.28
2022-11-20T03:20:24.152Z,4.25
2022-11-20T03:22:52.053Z,4.45
2022-11-20T03:25:19.824Z,3.88
2022-11-20T03:27:47.645Z,3.92
2022-11-20T03:30:15.968Z,4.32
2022-11-20T03:32:45.332Z,4.28
2022-11-20T03:35:13.159Z,3.75
2022-11-20T03:37:40.886Z,4.28
2022-11-20T03:40:09.668Z,4.20
2022-11-20T03:42:49.584Z,3.78
2022-11-20T03:45:18.769Z,3.20
2022-11-20T03:47:48.405Z,3.95
2022-11-20T03:50:16.428Z,3.67
2022-11-20T03:52:44.270Z,3.10
2022-11-20T03:55:12.137Z,4.20
2022-11-20T03:57:39.883Z,3.67
2022-11-20T04:00:08.697Z,3.88
2022-11-20T04:02:36.875Z,2.88
2022-11-20T04:05:06.543Z,4.20
2022-11-20T04:07:36.358Z,2.85
2022-11-20T04:10:04.748Z,3.38
2022-11-20T04:12:34.293Z,3.70
2022-11-20T04:15:02.039Z,3.17
2022-11-20T04:17:29.760Z,3.47
2022-11-20T04:19:57.524Z,3.42
2022-11-20T04:22:26.689Z,3.72
2022-11-20T04:24:54.546Z,2.67
2022-11-20T04:27:22.777Z,4.55
2022-11-20T04:29:50.518Z,2.08
2022-11-20T04:32:18.257Z,2.10
2022-11-20T04:34:46.002Z,2.05
2022-11-20T04:37:13.838Z,3.28
2022-11-20T04:39:43.030Z,2.78
2022-11-20T04:42:30.324Z,3.50
2022-11-20T04:44:58.925Z,3.38
2022-11-20T04:47:26.676Z,4.13
2022-11-20T04:49:54.478Z,4.13
2022-11-20T04:52:22.294Z,2.60
2022-11-20T04:54:53.695Z,2.58
2022-11-20T04:57:21.776Z,2.50
2022-11-20T04:59:49.543Z,3.15
2022-11-20T05:02:17.430Z,2.92
2022-11-20T05:04:45.176Z,3.05
2022-11-20T05:07:13.041Z,2.17
2022-11-20T05:09:40.870Z,1.95
2022-11-20T05:12:11.007Z,3.05
2022-11-20T05:14:38.837Z,3.13
2022-11-20T05:17:06.737Z,2.55
2022-11-20T05:19:34.495Z,2.95
2022-11-20T05:22:02.211Z,1.80
2022-11-20T05:24:29.943Z,1.95
2022-11-20T05:26:57.671Z,2.22
2022-11-20T05:29:26.796Z,1.15
2022-11-20T05:31:54.514Z,1.70
2022-11-20T05:34:22.310Z,2.65
2022-11-20T05:36:50.056Z,2.30
2022-11-20T05:39:17.813Z,2.78
2022-11-20T05:41:45.564Z,3.88
2022-11-20T05:44:13.783Z,1.77
2022-11-20T05:46:42.858Z,3.50
2022-11-20T05:49:10.770Z,2.50
2022-11-20T05:51:38.498Z,2.38
2022-11-20T05:54:06.348Z,3.00
2022-11-20T05:56:34.438Z,2.78
2022-11-20T05:59:02.187Z,2.60
2022-11-20T06:01:29.940Z,2.60
2022-11-20T06:03:59.005Z,3.67
2022-11-20T06:06:27.103Z,2.90
2022-11-20T06:08:55.212Z,4.72
2022-11-20T06:11:23.335Z,3.17
2022-11-20T06:13:51.288Z,3.38
2022-11-20T06:16:21.312Z,3.47
2022-11-20T06:18:49.170Z,2.33
2022-11-20T06:21:20.288Z,2.10
2022-11-20T06:23:49.238Z,2.15
2022-11-20T06:26:18.454Z,3.03
2022-11-20T06:28:46.878Z,2.45
2022-11-20T06:31:16.948Z,2.83
2022-11-20T06:33:45.302Z,1.33
2022-11-20T06:36:14.340Z,2.22
2022-11-20T06:38:43.604Z,1.63
2022-11-20T06:41:15.223Z,1.67
2022-11-20T06:43:43.097Z,1.05
2022-11-20T06:46:12.073Z,1.17
2022-11-20T06:48:39.897Z,0.77
2022-11-20T06:51:09.033Z,0.93
2022-11-20T06:53:37.947Z,0.68
2022-11-20T06:56:08.028Z,0.60
2022-11-20T06:58:36.791Z,0.70
2022-11-20T07:01:06.786Z,0.82
2022-11-20T07:03:34.675Z,1.20
2022-11-20T07:06:03.467Z,1.27
2022-11-20T07:08:31.591Z,1.40
2022-11-20T07:11:00.645Z,0.70
2022-11-20T07:13:30.288Z,2.55
2022-11-20T07:16:02.010Z,3.00
2022-11-20T07:18:29.845Z,1.38
2022-11-20T07:20:57.943Z,1.30
2022-11-20T07:23:25.665Z,1.33
2022-11-20T07:25:53.457Z,1.50
2022-11-20T07:28:21.233Z,1.33
2022-11-20T07:30:53.370Z,1.15
2022-11-20T07:33:21.396Z,3.60
2022-11-20T07:35:49.144Z,1.25
2022-11-20T07:38:17.161Z,3.28
2022-11-20T07:40:45.093Z,2.17
2022-11-20T07:43:12.845Z,2.42
2022-11-20T07:45:40.952Z,1.75
2022-11-20T07:48:10.073Z,1.50
2022-11-20T07:50:37.839Z,1.30
2022-11-20T07:53:06.496Z,1.63
2022-11-20T07:55:34.539Z,3.35
2022-11-20T07:58:02.279Z,2.30
2022-11-20T08:00:30.125Z,1.50
2022-11-20T08:02:57.900Z,3.40
2022-11-20T08:05:26.939Z,2.05
2022-11-20T08:07:54.668Z,3.00
2022-11-20T08:10:22.409Z,2.40
2022-11-20T08:13:09.356Z,3.28
2022-11-20T08:15:38.284Z,3.67
2022-11-20T08:18:31.284Z,2.70
2022-11-20T08:20:57.567Z,2.97
2022-11-20T08:23:25.569Z,3.55
2022-11-20T08:25:53.513Z,2.05
2022-11-20T08:28:22.280Z,3.97
2022-11-20T08:30:51.028Z,3.67
2022-11-20T08:33:19.610Z,3.95
2022-11-20T08:35:47.770Z,5.95
2022-11-20T08:38:16.900Z,8.85
2022-11-20T08:41:06.155Z,6.10
2022-11-20T08:43:34.485Z,4.85
2022-11-20T08:46:02.365Z,5.88
2022-11-20T08:48:30.097Z,4.80
2022-11-20T08:51:00.409Z,5.60
2022-11-20T08:53:29.929Z,7.07
2022-11-20T08:55:58.942Z,4.75
2022-11-20T08:58:27.319Z,8.07
2022-11-20T09:00:55.350Z,7.07
2022-11-20T09:03:24.856Z,6.70
2022-11-20T09:05:59.205Z,5.55
2022-11-20T09:08:26.980Z,4.55
2022-11-20T09:10:56.978Z,3.20
2022-11-20T09:13:25.822Z,3.65
2022-11-20T09:15:57.176Z,5.15
2022-11-20T09:18:25.457Z,4.32
2022-11-20T09:20:53.279Z,3.53
2022-11-20T09:23:21.045Z,4.70
2022-11-20T09:25:48.803Z,3.88
2022-11-20T09:28:19.261Z,4.85
2022-11-20T09:30:47.052Z,5.03
2022-11-20T09:33:14.849Z,6.57
2022-11-20T09:35:44.409Z,5.88
2022-11-20T09:38:12.932Z,3.45
2022-11-20T09:40:45.647Z,27.63
2022-11-20T09:43:20.890Z,13.35
2022-11-20T09:46:03.559Z,4.70
2022-11-20T09:48:57.847Z,6.50
2022-11-20T09:51:40.197Z,4.05
2022-11-20T09:54:17.218Z,7.82
2022-11-20T09:56:47.864Z,5.47
2022-11-20T09:59:35.831Z,6.47
2022-11-20T10:02:10.333Z,5.22
2022-11-20T10:04:45.473Z,6.35
2022-11-20T10:07:31.774Z,8.20
2022-11-20T10:10:01.059Z,7.15
2022-11-20T10:12:36.901Z,6.10
2022-11-20T10:15:18.364Z,8.38
2022-11-20T10:18:04.113Z,5.28
2022-11-20T10:20:42.705Z,4.85
2022-11-20T10:23:37.950Z,8.13
2022-11-20T10:26:16.375Z,8.98
2022-11-20T10:29:00.670Z,5.70
2022-11-20T10:31:34.847Z,6.13
2022-11-20T10:34:12.577Z,6.95
2022-11-20T10:36:45.900Z,4.88
2022-11-20T10:39:24.749Z,6.05
2022-11-20T10:41:54.484Z,7.22
2022-11-20T10:44:37.816Z,4.72
2022-11-20T10:47:12.157Z,6.55
2022-11-20T10:49:41.301Z,5.38
2022-11-20T10:52:16.353Z,8.55
2022-11-20T10:54:58.133Z,5.72
2022-11-20T10:57:37.512Z,5.75
2022-11-20T11:00:07.678Z,5.15
2022-11-20T11:02:42.340Z,4.10
2022-11-20T11:05:24.729Z,4.82
2022-11-20T11:07:55.081Z,4.97
2022-11-20T11:10:27.847Z,4.13
2022-11-20T11:12:56.146Z,3.60
2022-11-20T11:15:29.952Z,3.55
2022-11-20T11:17:59.043Z,4.13
2022-11-20T11:20:27.985Z,4.57
2022-11-20T11:22:57.505Z,3.55
2022-11-20T11:25:29.537Z,3.65
2022-11-20T11:27:59.854Z,4.28
2022-11-20T11:30:30.942Z,3.15
2022-11-20T11:33:08.225Z,5.45
2022-11-20T11:35:40.847Z,5.03
2022-11-20T11:38:16.231Z,2.92
2022-11-20T11:40:44.253Z,15.82
2022-11-20T11:43:39.561Z,8.82
2022-11-20T11:46:27.408Z,7.53
2022-11-20T11:49:02.233Z,4.70
2022-11-20T11:51:39.951Z,8.00
2022-11-20T11:54:17.577Z,13.20
2022-11-20T11:56:46.577Z,10.98
2022-11-20T11:59:20.718Z,7.63
2022-11-20T12:01:56.569Z,4.50
2022-11-20T12:04:39.501Z,5.35
2022-11-20T12:07:44.382Z,4.70
2022-11-20T12:10:03.741Z,4.70
2022-11-20T12:12:37.896Z,5.20
2022-11-20T12:15:11.682Z,6.25
2022-11-20T12:17:39.462Z,3.60
2022-11-20T12:20:14.961Z,3.17
2022-11-20T12:22:52.415Z,5.32
2022-11-20T12:25:24.264Z,5.63
2022-11-20T12:28:23.149Z,4.00
2022-11-20T12:31:02.419Z,3.70
2022-11-20T12:33:52.708Z,2.60
2022-11-20T12:36:34.445Z,3.38
2022-11-20T12:39:15.497Z,6.38
2022-11-20T12:42:14.632Z,5.05
2022-11-20T12:45:13.952Z,6.45
2022-11-20T12:47:52.997Z,3.47
2022-11-20T12:50:29.287Z,3.20
2022-11-20T12:53:04.667Z,3.38
2022-11-20T12:55:42.681Z,4.18
2022-11-20T12:58:17.817Z,4.18
2022-11-20T13:00:56.640Z,3.47
2022-11-20T13:03:38.061Z,3.13
2022-11-20T13:06:17.210Z,3.97
2022-11-20T13:08:54.107Z,3.63
2022-11-20T13:11:29.919Z,6.00
2022-11-20T13:14:18.615Z,4.20
2022-11-20T13:16:52.159Z,3.65
2022-11-20T13:19:20.979Z,4.10
2022-11-20T13:21:51.298Z,3.25
2022-11-20T13:24:27.354Z,4.18
2022-11-20T13:27:21.435Z,3.63
2022-11-20T13:30:14.234Z,3.70
2022-11-20T13:32:54.245Z,3.40
2022-11-20T13:35:33.993Z,4.07
2022-11-20T13:38:04.572Z,3.63
2022-11-20T13:40:33.895Z,4.15
2022-11-20T13:43:13.113Z,4.40
2022-11-20T13:45:40.920Z,8.25
2022-11-20T13:48:23.907Z,5.63
2022-11-20T13:51:02.188Z,4.00
2022-11-20T13:53:44.873Z,3.78
2022-11-20T13:56:23.878Z,5.28
2022-11-20T13:59:05.155Z,4.72
2022-11-20T14:01:35.535Z,21.50
2022-11-20T14:04:09.385Z,10.70
2022-11-20T14:06:43.833Z,14.13
2022-11-20T14:09:14.470Z,11.15
2022-11-20T14:11:49.736Z,8.63
2022-11-20T14:14:20.013Z,4.57
2022-11-20T14:16:48.176Z,2.70
2022-11-20T14:19:31.289Z,4.25
2022-11-20T14:22:18.413Z,4.63
2022-11-20T14:24:46.204Z,4.88
2022-11-20T14:27:17.892Z,4.10
2022-11-20T14:29:47.715Z,5.03
2022-11-20T14:32:18.143Z,6.55
2022-11-20T14:34:48.461Z,3.75
2022-11-20T14:37:25.267Z,5.43
2022-11-20T14:39:55.389Z,2.60
2022-11-20T14:42:26.880Z,5.22
2022-11-20T14:44:57.389Z,8.02
2022-11-20T14:47:28.008Z,7.25
2022-11-20T14:49:57.566Z,9.25
2022-11-20T14:52:27.226Z,8.43
2022-11-20T14:54:56.720Z,16.33
2022-11-20T14:57:28.718Z,20.88
2022-11-20T15:00:08.825Z,9.52
2022-11-20T15:02:40.608Z,12.48
2022-11-20T15:05:08.781Z,6.97
2022-11-20T15:07:38.333Z,5.50
2022-11-20T15:10:08.710Z,5.18
2022-11-20T15:12:40.764Z,6.32
2022-11-20T15:15:13.907Z,7.55
2022-11-20T15:17:43.095Z,4.93
2022-11-20T15:20:15.404Z,5.78
2022-11-20T15:22:43.262Z,5.90
2022-11-20T15:25:14.821Z,5.80
2022-11-20T15:27:44.518Z,5.88
2022-11-20T15:30:16.157Z,4.05
2022-11-20T15:32:44.017Z,4.63
2022-11-20T15:35:12.297Z,4.80
2022-11-20T15:37:40.601Z,5.20
2022-11-20T15:40:10.046Z,6.43
2022-11-20T15:42:37.964Z,4.75
2022-11-20T15:45:07.665Z,4.57
2022-11-20T15:47:37.303Z,6.32
2022-11-20T15:50:05.653Z,4.40
2022-11-20T15:52:41.967Z,4.68
2022-11-20T15:55:12.149Z,4.18
2022-11-20T15:57:39.996Z,3.95
2022-11-20T16:00:10.977Z,4.63
2022-11-20T16:02:38.787Z,4.25
2022-11-20T16:05:12.696Z,4.40
2022-11-20T16:07:40.692Z,3.60
2022-11-20T16:10:09.266Z,4.00
2022-11-20T16:12:54.303Z,4.68
2022-11-20T16:15:41.199Z,6.88
2022-11-20T16:18:12.033Z,3.75
2022-11-20T16:20:40.455Z,4.28
2022-11-20T16:23:08.753Z,7.10
2022-11-20T16:25:36.501Z,4.25
2022-11-20T16:28:04.405Z,5.57
2022-11-20T16:30:35.068Z,6.82
2022-11-20T16:33:03.797Z,3.35
2022-11-20T16:35:32.644Z,5.25
2022-11-20T16:38:00.701Z,5.80
2022-11-20T16:40:28.626Z,5.95
2022-11-20T16:42:56.416Z,5.72
2022-11-20T16:45:27.867Z,4.43
2022-11-20T16:47:59.415Z,4.53
2022-11-20T16:50:27.219Z,5.93
2022-11-20T16:52:55.125Z,5.75
2022-11-20T16:55:22.890Z,4.75
2022-11-20T16:57:50.672Z,5.63
2022-11-20T17:00:18.586Z,6.22
2022-11-20T17:02:46.313Z,5.60
2022-11-20T17:05:15.457Z,5.07
2022-11-20T17:07:43.265Z,5.85
2022-11-20T17:10:11.028Z,5.13
2022-11-20T17:12:38.750Z,6.13
2022-11-20T17:15:07.747Z,4.20
2022-11-20T17:17:35.473Z,6.10
2022-11-20T17:20:03.211Z,5.85
2022-11-20T17:22:32.812Z,5.95
2022-11-20T17:25:00.576Z,3.92
2022-11-20T17:27:28.288Z,4.22
2022-11-20T17:29:57.638Z,6.90
2022-11-20T17:32:25.424Z,4.82
2022-11-20T17:34:53.193Z,5.25
2022-11-20T17:37:20.924Z,13.13
2022-11-20T17:39:50.052Z,5.00
2022-11-20T17:42:30.015Z,6.22
2022-11-20T17:44:58.645Z,7.40
2022-11-20T17:47:26.792Z,6.45
2022-11-20T17:49:55.361Z,4.55
2022-11-20T17:52:23.312Z,4.88
2022-11-20T17:54:55.756Z,5.78
2022-11-20T17:57:41.270Z,4.07
2022-11-20T18:00:13.050Z,3.90
2022-11-20T18:02:40.828Z,4.97
2022-11-20T18:05:09.220Z,4.57
2022-11-20T18:07:41.632Z,4.03
2022-11-20T18:10:11.506Z,6.18
2022-11-20T18:12:39.233Z,5.60
2022-11-20T18:15:07.621Z,11.70
2022-11-20T18:17:36.329Z,9.75
2022-11-20T18:20:27.902Z,11.35
2022-11-20T18:22:52.673Z,6.03
2022-11-20T18:25:21.735Z,11.60
2022-11-20T18:27:49.485Z,10.70
2022-11-20T18:30:17.346Z,11.98
2022-11-20T18:32:45.282Z,9.27
2022-11-20T18:35:13.040Z,8.85
2022-11-20T18:37:40.817Z,6.45
2022-11-20T18:40:10.225Z,7.28
2022-11-20T18:42:57.367Z,5.57
2022-11-20T18:45:25.117Z,6.50
2022-11-20T18:47:52.859Z,5.38
2022-11-20T18:50:20.653Z,6.25
2022-11-20T18:52:48.403Z,5.97
2022-11-20T18:55:16.574Z,6.30
2022-11-20T18:57:45.665Z,4.30
2022-11-20T19:00:14.523Z,4.65
2022-11-20T19:02:43.408Z,7.65
2022-11-20T19:05:11.715Z,5.28
2022-11-20T19:07:39.520Z,4.97
2022-11-20T19:10:07.928Z,6.95
2022-11-20T19:12:35.713Z,5.85
2022-11-20T19:15:05.626Z,6.95
2022-11-20T19:17:33.971Z,6.68
2022-11-20T19:20:01.771Z,6.47
2022-11-20T19:22:29.518Z,8.25
2022-11-20T19:24:57.253Z,5.50
2022-11-20T19:27:25.351Z,5.82
2022-11-20T19:29:54.826Z,5.65
2022-11-20T19:32:24.268Z,6.57
2022-11-20T19:34:52.432Z,6.90
2022-11-20T19:37:20.572Z,6.93
2022-11-20T19:39:48.653Z,7.45
2022-11-20T19:42:16.827Z,8.90
2022-11-20T19:44:44.954Z,8.05
2022-11-20T19:47:14.681Z,7.43
2022-11-20T19:49:44.608Z,7.22
2022-11-20T19:52:12.718Z,7.50
2022-11-20T19:54:40.841Z,6.03
2022-11-20T19:57:08.971Z,6.82
2022-11-20T19:59:37.121Z,6.47
2022-11-20T20:02:06.236Z,6.15
2022-11-20T20:04:34.380Z,6.70
2022-11-20T20:07:06.177Z,6.72
2022-11-20T20:09:34.799Z,6.70
2022-11-20T20:12:02.905Z,6.30
2022-11-20T20:14:31.959Z,8.15
2022-11-20T20:17:00.101Z,8.32
2022-11-20T20:19:28.221Z,7.75
2022-11-20T20:21:56.371Z,9.07
2022-11-20T20:24:25.837Z,8.88
2022-11-20T20:26:57.949Z,10.50
2022-11-20T20:29:26.478Z,8.18
2022-11-20T20:31:54.413Z,9.57
2022-11-20T20:34:22.903Z,7.90
2022-11-20T20:36:50.631Z,9.35
2022-11-20T20:39:19.662Z,9.50
2022-11-20T20:41:51.029Z,9.20
2022-11-20T20:44:53.616Z,7.95
2022-11-20T20:47:25.617Z,8.38
2022-11-20T20:49:57.795Z,6.63
2022-11-20T20:52:35.361Z,7.20
2022-11-20T20:55:13.072Z,8.05
2022-11-20T20:58:02.608Z,6.63
2022-11-20T21:00:30.890Z,8.10
2022-11-20T21:02:59.012Z,6.60
2022-11-20T21:05:27.113Z,7.50
2022-11-20T21:08:13.119Z,6.85
2022-11-20T21:10:41.227Z,7.68
2022-11-20T21:13:10.660Z,7.50
2022-11-20T21:15:40.368Z,8.73
2022-11-20T21:18:08.655Z,7.40
2022-11-20T21:20:54.284Z,7.35
2022-11-20T21:23:22.388Z,7.30
2022-11-20T21:25:50.123Z,7.80
2022-11-20T21:28:19.209Z,7.68
2022-11-20T21:30:47.275Z,6.88
2022-11-20T21:33:15.444Z,8.43
2022-11-20T21:35:43.156Z,6.63
2022-11-20T21:38:11.251Z,6.70
2022-11-20T21:40:39.363Z,6.47
2022-11-20T21:43:07.464Z,7.15
2022-11-20T21:45:37.285Z,6.93
2022-11-20T21:48:05.619Z,8.07
2022-11-20T21:50:35.551Z,8.40
2022-11-20T21:53:03.264Z,7.28
2022-11-20T21:55:31.014Z,8.80
2022-11-20T21:57:58.750Z,7.38
2022-11-20T22:00:26.504Z,8.30
2022-11-20T22:02:56.540Z,7.93
2022-11-20T22:05:25.320Z,8.82
2022-11-20T22:07:53.038Z,7.95
2022-11-20T22:10:20.757Z,7.65
2022-11-20T22:12:48.484Z,7.95
2022-11-20T22:15:23.838Z,6.60
2022-11-20T22:18:14.419Z,8.95
2022-11-20T22:20:42.309Z,7.13
2022-11-20T22:23:10.451Z,5.88
2022-11-20T22:25:38.554Z,7.63
2022-11-20T22:28:06.480Z,7.90
2022-11-20T22:30:35.054Z,6.45
2022-11-20T22:33:10.345Z,6.25
2022-11-20T22:35:43.528Z,5.97
2022-11-20T22:38:11.659Z,7.03
2022-11-20T22:40:39.977Z,6.43
2022-11-20T22:43:08.102Z,8.80
2022-11-20T22:45:36.274Z,9.02
2022-11-20T22:48:06.216Z,8.93
2022-11-20T22:50:34.350Z,6.03
2022-11-20T22:53:02.455Z,6.38
2022-11-20T22:55:30.589Z,6.40
2022-11-20T22:57:58.716Z,6.22
2022-11-20T23:00:26.812Z,7.07
2022-11-20T23:02:54.928Z,5.90
2022-11-20T23:05:24.378Z,8.15
2022-11-20T23:07:52.515Z,5.68
2022-11-20T23:10:20.668Z,6.22
2022-11-20T23:12:48.766Z,6.35
2022-11-20T23:15:16.599Z,7.05
2022-11-20T23:17:45.509Z,6.03
2022-11-20T23:20:13.681Z,7.55
2022-11-20T23:22:43.119Z,6.40
2022-11-20T23:25:11.478Z,8.63
2022-11-20T23:27:39.591Z,7.25
2022-11-20T23:30:08.357Z,7.45
2022-11-20T23:32:36.488Z,6.88
2022-11-20T23:35:04.666Z,6.82
2022-11-20T23:37:32.399Z,6.95
2022-11-20T23:40:01.457Z,8.38
2022-11-20T23:42:29.227Z,7.88
2022-11-20T23:44:57.328Z,6.93
2022-11-20T23:47:25.479Z,8.00
2022-11-20T23:49:53.586Z,7.18
2022-11-20T23:52:22.077Z,6.88
2022-11-20T23:54:49.791Z,7.15
2022-11-20T23:57:18.870Z,8.50
2022-11-20T23:59:46.641Z,8.18
